الصفحة الرئيسية
METAR-TAF:

METAR-TAF

مطار :

بينكل, تركيا

دائرة عرض: 38-51-40N, خط طول: 40-35-33E, ارتفاع: 1063 متر

مراقبة الطقس الحالي

تاريخ ووقت الإصدار 17ساعات و 13 دقيقة قبل الساعة 11:50UTC
ريح 8 عقدة من الشرق/الشمال الشرقي, الاتجاه يتراوح بين الشمال/الشمال الشرقي و الشرق/الجنوب الشرقي
درجة الحرارة 10°درجة مئوية
الرطوبة 21%
ضغط 1023 hPa
الرؤية 10 كم أو أكثر
الغيوم لا تقل 1500 م ولا وجود لمزنة ركامية السحاب الأسود

METAR: LTCU 281150Z 07008KT 030V110 CAVOK 10/M11 Q1023

زمن: 08:03 (05:03 UTC)

توقعات

تاريخ ووقت الإصدار 3ساعات و 23 دقيقة قبل الساعة 01:40UTC
التوقعات صالحة من29 الساعة 03 UTC إلى 29 الساعة 12 UTC
ريح 7 عقدة من الشمال/الشمال الشرقي
الرؤية 10 كم أو أكثر
الغيوم لا تقل 1500 م ولا وجود لمزنة ركامية السحاب الأسود

TAF: LTCU 290140Z 2903/2912 03007KT CAVOK

أرصاد الطقس والتوقعات من أكثر من 4000 مطار (تقارير الطقس للمطار METAR والتنبؤ بالطقس بالمطارTAF).

المحطات المتاحة هي النقط الصفراء والحمراء على الخريطة.

حرك المؤشر فوق النقطة لمعرفة اسم المحطة.

ثم انقر لمعرفة أرصاد وتوقعات الطقس.

لتغيير الخارطة: اضغط على الأزرار الخضراء مع رمز الصليب الأسود للتكبير. على الزر الأخضر مع شرطة للتصغير، أو على الأسهم الخضراء للخرائط المجاورة.


METAR-TAF: